Kortrijk — ONIU — position and weather

sailwx.info

Track history (hours):
 
Tides and Currents Weather Stations Pressure Air Temp Water Temp Dewpoint Dewpoint Depression Visibility Wind Speed Wind Dir Waves Ship Positions

Kortrijk

Last reported at 2017-Nov-27 19:12 UTC. Time now 2017-Dec-11 09:49 UTC.
Position N 29°24' W 094°49'.
Warning: this ship's position is 13 days out of date.

Length 180 m; draft 9.5 m.

Type: Ship (hazmat cat D). MMSI: 205706000.

Date/timePositionNaut miles runAvg speedWind from/ knotsBaromVisibWave heightAir tempDewpointWater temp
2017-Nov-27 19:12N 29°24' W 094°49'211.4
2017-Nov-27 19:00N 29°26' W 094°50'611.3
2017-Nov-27 18:30N 29°31' W 094°53'611.3
2017-Nov-27 18:00N 29°35' W 094°56'510.0
2017-Nov-27 17:30N 29°40' W 094°59'4 7.1
2017-Nov-27 17:00N 29°43' W 095°01'3 7.0
2017-Nov-27 16:30N 29°45' W 095°04'2 4.5
2017-Nov-27 16:00N 29°44' W 095°06'2 4.6
2017-Nov-27 15:30N 29°44' W 095°09'2 4.6
2017-Nov-27 15:00N 29°45' W 095°12'  
2017-Nov-24 01:38N 29°44' W 095°12'0 0.2
2017-Nov-24 01:30N 29°44' W 095°12'1 2.6
2017-Nov-24 01:00N 29°45' W 095°11'3 6.4
2017-Nov-24 00:30N 29°44' W 095°07'3 6.2
2017-Nov-24 00:01N 29°45' W 095°04'4 7.1
2017-Nov-23 23:30N 29°42' W 095°01'4 8.5
2017-Nov-23 23:00N 29°39' W 094°58'611.4
2017-Nov-23 22:31N 29°34' W 094°55'612.5
2017-Nov-23 22:00N 29°29' W 094°51'612.5
2017-Nov-23 21:30N 29°23' W 094°49'  
Track history (hours):
 
Tides and Currents Weather Stations Pressure Air Temp Water Temp Dewpoint Dewpoint Depression Visibility Wind Speed Wind Dir Waves Ship Positions

Kortrijk

Last reported at 2017-Nov-27 19:12 UTC. Time now 2017-Dec-11 09:49 UTC.
Position N 29°24' W 094°49'.
Warning: this ship's position is 13 days out of date.

Length 180 m; draft 9.5 m.

Type: Ship (hazmat cat D). MMSI: 205706000.

Date/timePositionNaut miles runAvg speedWind from/ knotsBaromVisibWave heightAir tempDewpointWater temp
2017-Nov-27 19:12N 29°24' W 094°49'211.4
2017-Nov-27 19:00N 29°26' W 094°50'611.3
2017-Nov-27 18:30N 29°31' W 094°53'611.3
2017-Nov-27 18:00N 29°35' W 094°56'510.0
2017-Nov-27 17:30N 29°40' W 094°59'4 7.1
2017-Nov-27 17:00N 29°43' W 095°01'3 7.0
2017-Nov-27 16:30N 29°45' W 095°04'2 4.5
2017-Nov-27 16:00N 29°44' W 095°06'2 4.6
2017-Nov-27 15:30N 29°44' W 095°09'2 4.6
2017-Nov-27 15:00N 29°45' W 095°12'  
2017-Nov-24 01:38N 29°44' W 095°12'0 0.2
2017-Nov-24 01:30N 29°44' W 095°12'1 2.6
2017-Nov-24 01:00N 29°45' W 095°11'3 6.4
2017-Nov-24 00:30N 29°44' W 095°07'3 6.2
2017-Nov-24 00:01N 29°45' W 095°04'4 7.1
2017-Nov-23 23:30N 29°42' W 095°01'4 8.5
2017-Nov-23 23:00N 29°39' W 094°58'611.4
2017-Nov-23 22:31N 29°34' W 094°55'612.5
2017-Nov-23 22:00N 29°29' W 094°51'612.5
2017-Nov-23 21:30N 29°23' W 094°49'  

Dump ship's entire track history